Time;durP1;ratioP1;P1;durP2;ratioP2;P2;SDS_P1;SDS_P2;PMS_P1;PMS_P2;Temp;Humidity;BMP_temperature;BMP_pressure;BME280_temperature;BME280_humidity;BME280_pressure;Samples;Min_cycle;Max_cycle;Signal;HPM_P1;HPM_P2
2024/01/04 00:00:16;;;;;;;8.48;3.38;;;;;;;10.01;100.00;99406.81;5282883;28;20036;-84
2024/01/04 00:02:48;;;;;;;7.93;3.30;;;;;;;10.08;100.00;99416.47;5283875;28;20043;-83
2024/01/04 00:05:20;;;;;;;9.00;3.30;;;;;;;10.08;100.00;99419.09;5280954;28;20509;-84
2024/01/04 00:07:52;;;;;;;8.00;3.60;;;;;;;10.10;100.00;99424.16;5282052;28;20066;-84
2024/01/04 00:10:24;;;;;;;9.13;3.35;;;;;;;10.08;100.00;99423.50;5283724;28;20036;-84
2024/01/04 00:12:55;;;;;;;10.20;3.22;;;;;;;10.14;100.00;99443.78;5284151;28;20028;-85
2024/01/04 00:15:27;;;;;;;5.38;2.53;;;;;;;10.20;100.00;99445.78;5281604;28;20032;-84
2024/01/04 00:17:59;;;;;;;5.93;2.78;;;;;;;10.20;100.00;99456.25;5282190;28;20877;-83
2024/01/04 00:20:31;;;;;;;8.35;3.38;;;;;;;10.24;100.00;99462.78;5280985;28;20069;-85
2024/01/04 00:23:03;;;;;;;7.05;2.72;;;;;;;10.31;100.00;99473.47;5278674;28;20044;-83
2024/01/04 00:25:35;;;;;;;7.28;2.83;;;;;;;10.28;100.00;99476.41;5278895;28;20414;-84
2024/01/04 00:28:07;;;;;;;9.15;3.28;;;;;;;10.24;100.00;99470.63;5271864;28;20043;-84
2024/01/04 00:30:39;;;;;;;6.32;2.90;;;;;;;10.27;100.00;99490.47;5279800;28;20044;-85
2024/01/04 00:33:11;;;;;;;8.48;2.95;;;;;;;10.26;100.00;99494.88;5279963;28;20046;-84
2024/01/04 00:35:43;;;;;;;6.10;3.00;;;;;;;10.22;100.00;99507.41;5279825;28;20036;-84
2024/01/04 00:38:14;;;;;;;7.38;2.22;;;;;;;10.23;100.00;99505.66;5280942;28;20020;-84
2024/01/04 00:40:47;;;;;;;5.60;2.30;;;;;;;10.26;100.00;99515.81;5283869;28;20031;-84
2024/01/04 00:43:18;;;;;;;4.30;1.90;;;;;;;10.30;100.00;99526.78;5283368;28;20040;-86
2024/01/04 00:45:50;;;;;;;6.93;2.97;;;;;;;10.25;100.00;99527.25;5278972;28;20391;-83
2024/01/04 00:48:22;;;;;;;7.10;2.20;;;;;;;10.21;100.00;99533.75;5280839;28;20037;-84
2024/01/04 00:50:54;;;;;;;4.15;1.98;;;;;;;10.15;100.00;99527.38;5281811;28;20099;-84
2024/01/04 00:53:27;;;;;;;5.65;2.30;;;;;;;10.14;100.00;99530.16;5279993;28;20029;-84
2024/01/04 00:55:59;;;;;;;9.82;2.78;;;;;;;10.18;100.00;99547.16;5278909;28;20801;-85
2024/01/04 00:58:31;;;;;;;4.50;1.90;;;;;;;10.21;100.00;99552.09;5281440;28;20040;-87
2024/01/04 01:01:04;;;;;;;6.65;2.17;;;;;;;10.18;100.00;99560.25;5281615;28;20500;-84
2024/01/04 01:03:35;;;;;;;6.90;2.07;;;;;;;10.27;100.00;99563.75;5278404;28;20032;-85
2024/01/04 01:06:11;;;;;;;6.65;2.80;;;;;;;10.26;100.00;99569.97;5280300;28;20032;-84
2024/01/04 01:08:42;;;;;;;6.45;2.00;;;;;;;10.14;100.00;99575.44;5283703;28;20055;-84
2024/01/04 01:11:15;;;;;;;5.88;2.42;;;;;;;10.09;100.00;99569.06;5280027;28;20032;-85
2024/01/04 01:13:46;;;;;;;5.20;2.20;;;;;;;10.09;100.00;99579.53;5281256;28;20043;-84
2024/01/04 01:16:18;;;;;;;5.95;2.10;;;;;;;10.06;100.00;99574.59;5280135;28;20028;-86
2024/01/04 01:18:50;;;;;;;8.10;2.15;;;;;;;10.13;100.00;99586.09;5278049;28;20032;-84
2024/01/04 01:21:22;;;;;;;9.20;3.30;;;;;;;10.10;100.00;99586.41;5278226;28;20036;-85
2024/01/04 01:23:54;;;;;;;5.97;2.53;;;;;;;10.08;100.00;99580.53;5283954;28;20136;-83
2024/01/04 01:26:26;;;;;;;7.22;2.38;;;;;;;10.12;100.00;99590.50;5281083;28;20032;-84
2024/01/04 01:28:58;;;;;;;5.10;2.55;;;;;;;10.13;100.00;99591.31;5281012;28;20047;-84
2024/01/04 01:31:30;;;;;;;7.75;2.20;;;;;;;10.14;100.00;99601.63;5269178;28;20036;-84
2024/01/04 01:34:01;;;;;;;8.35;2.60;;;;;;;10.13;100.00;99612.25;5282446;28;20492;-84
2024/01/04 01:36:34;;;;;;;5.03;2.15;;;;;;;10.14;100.00;99617.31;5277040;28;20417;-84
2024/01/04 01:39:06;;;;;;;9.38;2.58;;;;;;;10.16;100.00;99622.41;5278750;28;20039;-84
2024/01/04 01:41:37;;;;;;;7.47;2.03;;;;;;;10.18;100.00;99630.91;5281010;28;20036;-84
2024/01/04 01:44:10;;;;;;;7.93;2.13;;;;;;;10.18;100.00;99634.34;5272261;28;20036;-84
2024/01/04 01:46:43;;;;;;;8.05;2.08;;;;;;;10.13;100.00;99633.19;5278594;28;20095;-84
2024/01/04 01:49:15;;;;;;;4.95;1.90;;;;;;;10.14;100.00;99650.53;5282183;28;20032;-83
2024/01/04 01:51:47;;;;;;;7.35;2.20;;;;;;;10.15;100.00;99655.63;5278015;28;20101;-84
2024/01/04 01:54:19;;;;;;;7.45;2.33;;;;;;;10.18;100.00;99657.09;5278844;28;20055;-84
2024/01/04 01:56:51;;;;;;;6.60;2.05;;;;;;;10.19;100.00;99656.09;5281867;28;20044;-86
2024/01/04 01:59:24;;;;;;;8.27;2.13;;;;;;;10.20;100.00;99655.16;5274474;28;20051;-85
2024/01/04 02:01:55;;;;;;;8.48;2.72;;;;;;;10.22;100.00;99666.25;5280289;28;20648;-84
2024/01/04 02:04:27;;;;;;;8.40;2.42;;;;;;;10.23;100.00;99676.59;5278645;28;20035;-84
2024/01/04 02:07:00;;;;;;;10.07;2.70;;;;;;;10.21;100.00;99677.72;5279287;28;20028;-84
2024/01/04 02:09:32;;;;;;;6.57;2.20;;;;;;;10.27;100.00;99676.31;5282665;28;20071;-85
2024/01/04 02:12:05;;;;;;;8.80;2.25;;;;;;;10.16;100.00;99664.28;5293841;28;20055;-84
2024/01/04 02:14:38;;;;;;;10.70;2.35;;;;;;;10.15;100.00;99662.63;5295512;28;20530;-85
2024/01/04 02:17:10;;;;;;;8.07;2.67;;;;;;;10.15;100.00;99673.09;5293639;28;20020;-85
2024/01/04 02:19:42;;;;;;;8.15;2.40;;;;;;;10.14;100.00;99687.97;5287292;28;20304;-85
2024/01/04 02:22:14;;;;;;;10.13;2.53;;;;;;;10.10;100.00;99683.22;5296516;28;20034;-85
2024/01/04 02:24:46;;;;;;;10.27;2.58;;;;;;;10.16;100.00;99698.31;5283729;28;20044;-84
2024/01/04 02:27:18;;;;;;;6.63;2.20;;;;;;;10.17;100.00;99713.84;5288022;28;20050;-85
2024/01/04 02:29:50;;;;;;;6.03;2.20;;;;;;;10.11;100.00;99692.72;5298058;28;20062;-84
2024/01/04 02:32:22;;;;;;;7.40;2.22;;;;;;;9.98;100.00;99695.75;5291353;28;20046;-85
2024/01/04 02:34:54;;;;;;;9.63;2.85;;;;;;;10.11;100.00;99708.41;5289671;28;20059;-85
2024/01/04 02:37:26;;;;;;;8.18;2.60;;;;;;;10.07;100.00;99686.16;5297159;28;20119;-84
2024/01/04 02:39:58;;;;;;;7.32;2.60;;;;;;;10.13;100.00;99709.91;5288798;28;20047;-85
2024/01/04 02:42:31;;;;;;;8.93;2.50;;;;;;;10.16;100.00;99716.63;5295340;28;20512;-84
2024/01/04 02:45:04;;;;;;;9.43;3.55;;;;;;;10.06;100.00;99723.75;5296285;28;20031;-85
2024/01/04 02:47:36;;;;;;;8.55;3.20;;;;;;;10.17;100.00;99734.78;5295654;28;20024;-85
2024/01/04 02:50:09;;;;;;;8.43;2.97;;;;;;;10.18;100.00;99731.19;5293220;28;20035;-84
2024/01/04 02:52:41;;;;;;;5.63;2.37;;;;;;;10.18;100.00;99731.19;5287891;28;20046;-84
2024/01/04 02:55:13;;;;;;;5.40;2.08;;;;;;;10.18;100.00;99735.59;5294794;28;20415;-84
2024/01/04 02:57:44;;;;;;;4.25;1.90;;;;;;;10.11;100.00;99734.59;5294512;28;20043;-84
2024/01/04 03:00:17;;;;;;;5.53;1.50;;;;;;;10.00;100.00;99727.84;5293793;28;20028;-84
2024/01/04 03:02:49;;;;;;;5.40;1.63;;;;;;;10.03;100.00;99751.06;5298271;28;20030;-84
2024/01/04 03:05:21;;;;;;;4.72;1.48;;;;;;;9.90;100.00;99732.34;5298991;28;20041;-84
2024/01/04 03:07:53;;;;;;;3.55;1.50;;;;;;;9.91;100.00;99741.81;5295068;28;20097;-84
2024/01/04 03:10:24;;;;;;;4.82;1.80;;;;;;;9.98;100.00;99761.16;5296355;28;20060;-84
2024/01/04 03:12:56;;;;;;;2.85;1.52;;;;;;;9.99;100.00;99768.84;5296332;28;20119;-84
2024/01/04 03:15:29;;;;;;;3.78;1.60;;;;;;;9.93;100.00;99758.19;5294729;28;20024;-84
2024/01/04 03:18:00;;;;;;;2.35;1.40;;;;;;;10.02;100.00;99775.59;5286215;28;20035;-83
2024/01/04 03:20:32;;;;;;;3.25;1.67;;;;;;;9.97;100.00;99781.28;5288140;28;21288;-83
2024/01/04 03:23:04;;;;;;;4.18;1.88;;;;;;;9.95;100.00;99779.78;5285523;27;20028;-83
2024/01/04 03:25:37;;;;;;;4.72;1.95;;;;;;;9.90;100.00;99780.25;5289513;28;20111;-83
2024/01/04 03:28:09;;;;;;;5.65;2.08;;;;;;;9.85;100.00;99777.28;5290032;28;20043;-83
2024/01/04 03:30:41;;;;;;;3.90;1.52;;;;;;;9.87;100.00;99779.72;5279049;28;20055;-83
2024/01/04 03:33:13;;;;;;;4.22;2.20;;;;;;;9.89;100.00;99794.31;5288007;28;20028;-83
2024/01/04 03:35:44;;;;;;;6.15;2.42;;;;;;;9.85;100.00;99790.34;5290036;28;20033;-83
2024/01/04 03:38:16;;;;;;;5.47;2.17;;;;;;;9.84;100.00;99793.09;5290535;28;20452;-83
2024/01/04 03:40:48;;;;;;;6.53;2.85;;;;;;;9.77;100.00;99792.88;5290506;28;20092;-83
2024/01/04 03:43:20;;;;;;;5.32;2.20;;;;;;;9.82;100.00;99803.72;5290349;28;20055;-84
2024/01/04 03:45:52;;;;;;;9.88;3.55;;;;;;;9.80;100.00;99810.88;5292500;28;20096;-83
2024/01/04 03:48:24;;;;;;;6.57;2.78;;;;;;;9.76;100.00;99793.84;5289227;28;20032;-83
2024/01/04 03:50:56;;;;;;;6.00;3.15;;;;;;;9.80;100.00;99799.59;5279916;28;20036;-83
2024/01/04 03:53:28;;;;;;;5.75;3.17;;;;;;;9.80;100.00;99800.44;5289934;28;20653;-84
2024/01/04 03:56:00;;;;;;;6.95;3.25;;;;;;;9.91;100.00;99812.47;5288748;28;20040;-83
2024/01/04 03:58:32;;;;;;;6.88;3.20;;;;;;;9.91;100.00;99825.53;5291674;28;20073;-83
2024/01/04 04:01:04;;;;;;;5.05;3.15;;;;;;;9.90;100.00;99819.50;5277537;28;20334;-83
2024/01/04 04:03:36;;;;;;;9.00;4.10;;;;;;;9.95;100.00;99816.41;5290282;28;20035;-83
2024/01/04 04:06:08;;;;;;;8.45;4.07;;;;;;;10.02;100.00;99829.72;5289015;28;20032;-83
2024/01/04 04:08:40;;;;;;;7.45;3.67;;;;;;;10.06;100.00;99836.28;5286608;28;20054;-83
2024/01/04 04:11:16;;;;;;;8.33;3.90;;;;;;;10.13;100.00;99839.94;5290012;28;20062;-83
2024/01/04 04:13:48;;;;;;;9.45;4.30;;;;;;;9.92;100.00;99830.59;5268372;28;20396;-83
2024/01/04 04:16:20;;;;;;;6.75;4.47;;;;;;;9.98;100.00;99843.09;5279036;28;20044;-84
2024/01/04 04:18:52;;;;;;;7.22;3.80;;;;;;;9.95;100.00;99853.84;5276140;28;20024;-83
2024/01/04 04:21:24;;;;;;;9.75;4.47;;;;;;;9.86;100.00;99830.41;5287833;28;20503;-83
2024/01/04 04:23:56;;;;;;;8.55;5.22;;;;;;;9.88;100.00;99846.75;5284177;28;20033;-83
2024/01/04 04:26:28;;;;;;;9.40;4.95;;;;;;;9.93;100.00;99842.75;5278246;28;20052;-83
2024/01/04 04:29:00;;;;;;;8.80;4.50;;;;;;;10.04;100.00;99853.94;5287591;28;20036;-83
2024/01/04 04:31:32;;;;;;;9.25;4.65;;;;;;;10.06;100.00;99863.28;5279302;28;20062;-83
2024/01/04 04:34:04;;;;;;;6.85;4.20;;;;;;;10.03;100.00;99858.34;5286926;28;20039;-83
2024/01/04 04:36:36;;;;;;;9.60;5.57;;;;;;;10.03;100.00;99857.53;5273913;28;20036;-84
2024/01/04 04:39:08;;;;;;;11.05;4.82;;;;;;;10.03;100.00;99868.81;5286262;28;20664;-84
2024/01/04 04:41:40;;;;;;;7.60;4.68;;;;;;;10.02;100.00;99871.59;5276075;28;20032;-83
2024/01/04 04:44:12;;;;;;;9.38;5.03;;;;;;;10.04;100.00;99877.47;5287568;28;20029;-83
2024/01/04 04:46:44;;;;;;;7.28;3.85;;;;;;;9.93;100.00;99873.31;5292661;28;20061;-83
2024/01/04 04:49:16;;;;;;;7.35;4.05;;;;;;;9.99;100.00;99883.97;5285293;28;20044;-83
2024/01/04 04:51:51;;;;;;;8.68;4.05;;;;;;;9.93;100.00;99868.09;5287201;28;20035;-83
2024/01/04 04:54:24;;;;;;;6.40;3.60;;;;;;;10.03;100.00;99883.69;5275012;28;20040;-83
2024/01/04 04:56:56;;;;;;;5.78;3.42;;;;;;;9.96;100.00;99881.69;5288587;28;20055;-83
2024/01/04 04:59:28;;;;;;;6.72;3.78;;;;;;;10.02;100.00;99897.75;5290030;28;20028;-83
2024/01/04 05:02:00;;;;;;;7.40;3.92;;;;;;;9.90;100.00;99879.66;5287267;28;20032;-83
2024/01/04 05:04:32;;;;;;;5.40;3.72;;;;;;;10.01;100.00;99890.88;5286888;28;20032;-83
2024/01/04 05:07:04;;;;;;;8.48;4.25;;;;;;;10.07;100.00;99903.34;5288058;28;20032;-83
2024/01/04 05:09:36;;;;;;;8.00;4.32;;;;;;;9.93;100.00;99886.41;5289409;28;20044;-83
2024/01/04 05:12:08;;;;;;;8.43;4.90;;;;;;;10.03;100.00;99896.78;5287171;28;20027;-84
2024/01/04 05:14:40;;;;;;;9.57;5.20;;;;;;;10.04;100.00;99893.19;5289636;28;20042;-83
2024/01/04 05:17:12;;;;;;;13.27;5.15;;;;;;;9.99;100.00;99906.72;5289899;28;20028;-83
2024/01/04 05:19:44;;;;;;;9.02;5.43;;;;;;;9.99;100.00;99902.28;5276751;28;20053;-84
2024/01/04 05:22:17;;;;;;;9.27;4.87;;;;;;;10.06;100.00;99910.38;5288936;28;20039;-83
2024/01/04 05:24:49;;;;;;;7.63;4.53;;;;;;;9.95;100.00;99911.41;5280626;28;20050;-83
2024/01/04 05:27:20;;;;;;;7.80;5.00;;;;;;;9.86;100.00;99911.50;5289684;28;20092;-83
2024/01/04 05:29:54;;;;;;;10.82;5.20;;;;;;;9.85;100.00;99915.06;5277758;28;20320;-83
2024/01/04 05:32:26;;;;;;;;;;;;;;;10.57;100.00;99918.50;5288304;28;20028;-83
2024/01/04 05:34:57;;;;;;;5.68;3.50;;;;;;;9.86;100.00;99914.13;5286170;28;20397;-83
2024/01/04 05:37:29;;;;;;;6.75;3.88;;;;;;;9.83;100.00;99927.50;5288259;28;20067;-83
2024/01/04 05:40:03;;;;;;;4.68;2.40;;;;;;;9.84;100.00;99926.50;5287670;28;20032;-83
2024/01/04 05:42:35;;;;;;;6.20;2.80;;;;;;;9.82;100.00;99923.25;5278842;28;20054;-83
2024/01/04 05:45:07;;;;;;;4.22;2.05;;;;;;;9.81;100.00;99929.41;5287917;28;20033;-84
2024/01/04 05:47:39;;;;;;;6.05;2.30;;;;;;;9.73;100.00;99938.00;5286866;28;20024;-83
2024/01/04 05:50:11;;;;;;;4.18;1.75;;;;;;;9.78;100.00;99943.63;5287125;28;20527;-83
2024/01/04 05:52:43;;;;;;;4.78;2.13;;;;;;;9.65;100.00;99943.97;5286610;28;20056;-83
2024/01/04 05:55:15;;;;;;;4.20;1.90;;;;;;;9.66;100.00;99944.78;5287435;28;20046;-83
2024/01/04 05:57:47;;;;;;;5.00;1.75;;;;;;;9.68;100.00;99954.13;5275954;28;20021;-83
2024/01/04 06:00:19;;;;;;;2.78;1.67;;;;;;;9.62;100.00;99959.97;5286688;28;20434;-84
2024/01/04 06:02:51;;;;;;;3.63;1.80;;;;;;;9.66;100.00;99963.09;5270485;28;20047;-83
2024/01/04 06:05:23;;;;;;;5.75;2.28;;;;;;;9.66;100.00;99965.72;5287095;28;20036;-83
2024/01/04 06:07:55;;;;;;;4.87;2.00;;;;;;;9.72;100.00;99967.75;5281591;28;20032;-83
2024/01/04 06:10:27;;;;;;;4.82;1.95;;;;;;;9.59;100.00;99964.66;5283148;28;20035;-83
2024/01/04 06:12:59;;;;;;;3.10;1.83;;;;;;;9.69;100.00;99995.00;5273151;28;20048;-83
2024/01/04 06:15:31;;;;;;;4.13;2.15;;;;;;;9.66;100.00;99984.00;5284203;28;20032;-83
2024/01/04 06:18:03;;;;;;;6.68;1.98;;;;;;;9.70;100.00;99991.44;5283780;28;20031;-82
2024/01/04 06:20:35;;;;;;;6.40;2.50;;;;;;;9.75;100.00;99997.06;5282505;28;20032;-84
2024/01/04 06:23:07;;;;;;;3.87;2.13;;;;;;;9.79;100.00;100002.00;5284875;28;20032;-84
2024/01/04 06:25:39;;;;;;;4.38;2.47;;;;;;;9.62;100.00;99998.34;5284993;28;20044;-83
2024/01/04 06:28:11;;;;;;;4.45;2.47;;;;;;;9.65;100.00;99995.44;5286092;28;20032;-84
2024/01/04 06:30:43;;;;;;;4.85;2.45;;;;;;;9.69;100.00;100002.03;5278551;28;20040;-84
2024/01/04 06:33:15;;;;;;;8.23;3.08;;;;;;;9.69;100.00;100002.03;5283986;28;20029;-79
2024/01/04 06:35:47;;;;;;;6.82;2.90;;;;;;;9.65;100.00;99998.06;5284258;28;20040;-86
2024/01/04 06:38:19;;;;;;;6.13;2.70;;;;;;;9.71;100.00;100002.72;5280932;28;20612;-83
2024/01/04 06:40:52;;;;;;;4.97;3.10;;;;;;;9.75;100.00;100010.13;5280600;28;20050;-83
2024/01/04 06:43:25;;;;;;;6.05;3.50;;;;;;;9.78;100.00;100021.28;5281343;28;20027;-83
2024/01/04 06:45:57;;;;;;;5.00;3.00;;;;;;;9.80;100.00;100025.38;5282705;28;20040;-83
2024/01/04 06:48:29;;;;;;;5.28;3.05;;;;;;;9.74;100.00;100024.19;5279175;28;20039;-82
2024/01/04 06:51:01;;;;;;;4.85;2.97;;;;;;;9.73;100.00;100029.53;5280537;28;20036;-83
2024/01/04 06:53:33;;;;;;;4.75;2.83;;;;;;;9.62;100.00;100029.72;5280684;28;20035;-83
2024/01/04 06:56:05;;;;;;;5.93;3.10;;;;;;;9.60;100.00;100036.91;5280627;28;20093;-83
2024/01/04 06:58:37;;;;;;;6.10;3.03;;;;;;;9.64;100.00;100046.94;5273529;28;20032;-83
2024/01/04 07:01:10;;;;;;;6.43;2.58;;;;;;;9.61;100.00;100056.84;5283846;28;20304;-83
2024/01/04 07:03:42;;;;;;;5.57;2.60;;;;;;;9.62;100.00;100050.66;5283223;28;20031;-83
2024/01/04 07:06:14;;;;;;;5.00;2.95;;;;;;;9.59;100.00;100058.81;5280829;28;20043;-81
2024/01/04 07:08:48;;;;;;;5.93;2.55;;;;;;;9.57;100.00;100063.34;5264668;28;20552;-83
2024/01/04 07:11:19;;;;;;;4.15;2.55;;;;;;;9.66;100.00;100068.56;5283477;28;20032;-83
2024/01/04 07:13:51;;;;;;;5.57;2.78;;;;;;;9.62;100.00;100061.13;5285127;28;20303;-83
2024/01/04 07:16:23;;;;;;;6.78;2.88;;;;;;;9.64;100.00;100060.00;5283334;28;20390;-83
2024/01/04 07:18:55;;;;;;;6.85;2.60;;;;;;;9.68;100.00;100076.25;5283621;28;20034;-83
2024/01/04 07:21:27;;;;;;;7.38;3.10;;;;;;;9.68;100.00;100077.06;5284167;28;20230;-83
2024/01/04 07:23:59;;;;;;;7.57;3.20;;;;;;;9.57;100.00;100072.00;5282814;28;20028;-83
2024/01/04 07:26:31;;;;;;;8.02;3.28;;;;;;;9.61;100.00;100081.22;5285121;28;20036;-83
2024/01/04 07:29:04;;;;;;;9.13;3.75;;;;;;;9.57;100.00;100073.81;5283204;28;20027;-83
2024/01/04 07:31:35;;;;;;;9.67;3.80;;;;;;;9.63;100.00;100081.09;5283638;28;20051;-83
2024/01/04 07:34:07;;;;;;;8.23;4.00;;;;;;;9.57;100.00;100076.41;5272138;28;20047;-83
2024/01/04 07:36:39;;;;;;;6.35;3.83;;;;;;;9.60;100.00;100086.59;5284010;28;20040;-83
2024/01/04 07:39:11;;;;;;;8.38;4.68;;;;;;;9.57;100.00;100076.41;5282624;28;20031;-83
2024/01/04 07:41:43;;;;;;;9.60;4.50;;;;;;;9.61;100.00;100088.25;5283005;28;20040;-83
2024/01/04 07:44:15;;;;;;;8.95;5.32;;;;;;;9.57;100.00;100089.50;5284693;28;21151;-83
2024/01/04 07:46:47;;;;;;;9.20;5.00;;;;;;;9.65;100.00;100097.44;5285276;28;20038;-83
2024/01/04 07:49:19;;;;;;;13.18;5.43;;;;;;;9.59;100.00;100101.47;5281561;28;20481;-83
2024/01/04 07:51:52;;;;;;;10.30;4.80;;;;;;;9.54;100.00;100115.91;5286456;28;20062;-83
2024/01/04 07:54:26;;;;;;;8.48;4.93;;;;;;;9.54;100.00;100111.50;5284643;28;20303;-83
2024/01/04 07:56:59;;;;;;;8.70;4.90;;;;;;;9.49;100.00;100111.94;5284669;28;20052;-83
2024/01/04 07:59:31;;;;;;;;;;;;;;;10.14;100.00;100129.50;5283966;28;20032;-83
2024/01/04 08:02:03;;;;;;;10.48;4.57;;;;;;;9.53;100.00;100116.91;5273598;28;19912;-83
2024/01/04 08:04:34;;;;;;;10.48;4.57;;;;;;;9.45;100.00;100125.44;5282748;28;20513;-83
2024/01/04 08:07:07;;;;;;;8.45;5.00;;;;;;;9.49;100.00;100132.84;5283634;28;20031;-83
2024/01/04 08:09:39;;;;;;;12.17;4.90;;;;;;;9.56;100.00;100137.53;5285012;28;20032;-83
2024/01/04 08:12:12;;;;;;;7.32;3.70;;;;;;;9.54;100.00;100131.59;5282903;28;20036;-82
2024/01/04 08:14:44;;;;;;;7.88;3.90;;;;;;;9.62;100.00;100136.97;5283946;28;20024;-82
2024/01/04 08:17:16;;;;;;;6.57;3.53;;;;;;;9.61;100.00;100137.94;5281735;28;20047;-83
2024/01/04 08:19:48;;;;;;;7.35;3.20;;;;;;;9.66;100.00;100148.78;5285176;28;20028;-83
2024/01/04 08:22:21;;;;;;;6.75;3.08;;;;;;;9.66;100.00;100151.41;5282521;28;20374;-83
2024/01/04 08:24:52;;;;;;;4.85;2.53;;;;;;;9.70;100.00;100155.41;5282135;28;20032;-83
2024/01/04 08:27:24;;;;;;;6.53;2.65;;;;;;;9.75;100.00;100153.19;5283197;28;20040;-83
2024/01/04 08:29:56;;;;;;;5.40;2.25;;;;;;;9.66;100.00;100138.31;5281774;28;20485;-83
2024/01/04 08:32:28;;;;;;;6.38;2.88;;;;;;;9.67;100.00;100151.28;5283285;28;20039;-83
2024/01/04 08:35:00;;;;;;;5.10;2.22;;;;;;;9.65;100.00;100154.97;5282052;28;20094;-83
2024/01/04 08:37:34;;;;;;;5.50;2.33;;;;;;;9.68;100.00;100157.31;5281738;28;20031;-83
2024/01/04 08:40:07;;;;;;;3.97;2.20;;;;;;;9.62;100.00;100148.28;5280818;28;20028;-83
2024/01/04 08:42:39;;;;;;;7.57;2.20;;;;;;;9.66;100.00;100159.25;5284274;28;20043;-83
2024/01/04 08:45:11;;;;;;;5.28;2.28;;;;;;;9.57;100.00;100157.47;5282164;28;20584;-83
2024/01/04 08:47:42;;;;;;;6.18;1.80;;;;;;;9.62;100.00;100163.97;5280558;28;20040;-83
2024/01/04 08:50:14;;;;;;;5.82;2.25;;;;;;;9.62;100.00;100165.72;5284692;28;20032;-83
2024/01/04 08:52:47;;;;;;;5.63;1.70;;;;;;;9.66;100.00;100169.69;5271182;28;20055;-83
2024/01/04 08:55:20;;;;;;;4.20;2.25;;;;;;;9.61;100.00;100161.47;5280097;28;20036;-83
2024/01/04 08:57:51;;;;;;;6.65;2.00;;;;;;;9.63;100.00;100168.22;5281183;28;20036;-83
2024/01/04 09:00:23;;;;;;;3.95;1.92;;;;;;;9.67;100.00;100182.66;5283396;28;20043;-83
2024/01/04 09:02:56;;;;;;;3.80;1.75;;;;;;;9.68;100.00;100183.47;5282847;28;20481;-83
2024/01/04 09:05:28;;;;;;;3.30;1.63;;;;;;;9.61;100.00;100183.22;5283868;28;20474;-83
2024/01/04 09:08:00;;;;;;;2.95;1.67;;;;;;;9.63;100.00;100185.69;5282747;28;20038;-83
2024/01/04 09:10:32;;;;;;;2.65;1.30;;;;;;;9.59;100.00;100189.56;5283831;28;20040;-83
2024/01/04 09:13:04;;;;;;;4.22;1.92;;;;;;;9.63;100.00;100189.13;5284230;28;20123;-83
2024/01/04 09:15:36;;;;;;;4.72;1.92;;;;;;;9.70;100.00;100200.69;5282879;28;20028;-83
2024/01/04 09:18:08;;;;;;;5.70;1.90;;;;;;;9.69;100.00;100201.63;5283784;28;20039;-83
2024/01/04 09:20:40;;;;;;;3.53;1.55;;;;;;;9.63;100.00;100193.53;5279274;28;20031;-83
2024/01/04 09:23:12;;;;;;;3.30;1.30;;;;;;;9.68;100.00;100204.41;5263082;28;20043;-83
2024/01/04 09:25:45;;;;;;;2.63;1.00;;;;;;;9.68;100.00;100201.78;5277316;28;20839;-83
2024/01/04 09:28:18;;;;;;;4.07;1.60;;;;;;;9.69;100.00;100206.03;5270642;28;20039;-83
2024/01/04 09:30:50;;;;;;;;;;;;;;;10.36;100.00;100207.69;5280750;28;20035;-83
2024/01/04 09:33:24;;;;;;;3.00;0.95;;;;;;;9.84;100.00;100215.09;5284879;28;19916;-83
2024/01/04 09:35:56;;;;;;;3.05;1.10;;;;;;;9.83;100.00;100220.50;5283025;28;20032;-83
2024/01/04 09:38:28;;;;;;;3.22;1.40;;;;;;;9.87;100.00;100212.22;5282183;28;20459;-83
2024/01/04 09:41:33;;;;;;;3.97;1.40;;;;;;;10.19;100.00;100218.88;5288175;28;20299;-82
2024/01/04 09:44:05;;;;;;;3.03;1.00;;;;;;;9.89;100.00;100228.63;5272259;28;20032;-83
2024/01/04 09:46:38;;;;;;;2.97;1.10;;;;;;;9.92;100.00;100219.63;5265711;28;20747;-83
2024/01/04 09:49:11;;;;;;;3.20;1.05;;;;;;;9.91;100.00;100229.28;5283613;28;20035;-82
2024/01/04 09:51:43;;;;;;;2.80;1.35;;;;;;;9.94;100.00;100242.09;5284501;28;20023;-83
2024/01/04 09:54:16;;;;;;;2.85;1.20;;;;;;;9.88;100.00;100242.63;5280160;28;20042;-82
2024/01/04 09:56:50;;;;;;;;;;;;;;;10.54;100.00;100249.66;5280484;28;20048;-83
2024/01/04 09:59:21;;;;;;;2.15;0.93;;;;;;;9.96;100.00;100257.63;5281696;28;19920;-82
2024/01/04 10:01:55;;;;;;;2.60;1.42;;;;;;;9.84;100.00;100245.69;5281279;28;20039;-83
2024/01/04 10:04:27;;;;;;;3.72;1.40;;;;;;;9.93;100.00;100255.31;5280338;28;20045;-82
2024/01/04 10:07:06;;;;;;;2.80;1.25;;;;;;;10.06;100.00;100257.63;5276415;28;20051;-83
2024/01/04 10:09:50;;;;;;;3.28;1.90;;;;;;;10.03;100.00;100263.13;5280773;28;20043;-82
2024/01/04 10:12:24;;;;;;;2.45;1.60;;;;;;;9.91;100.00;100270.31;5280259;28;20042;-83
2024/01/04 10:14:55;;;;;;;;;;;;;;;10.59;100.00;100275.41;5279000;28;20048;-83
2024/01/04 10:17:27;;;;;;;3.15;1.60;;;;;;;9.97;100.00;100275.81;5279942;28;19923;-83
2024/01/04 10:20:01;;;;;;;2.60;1.27;;;;;;;9.92;100.00;100277.19;5276164;28;20500;-83
2024/01/04 10:22:33;;;;;;;3.33;1.70;;;;;;;9.93;100.00;100286.72;5282118;28;20061;-83
2024/01/04 10:25:09;;;;;;;4.35;1.70;;;;;;;9.98;100.00;100271.41;5275722;28;20482;-83
2024/01/04 10:27:41;;;;;;;2.83;1.48;;;;;;;9.91;100.00;100284.22;5278669;28;20238;-83
2024/01/04 10:30:16;;;;;;;;;;;;;;;10.58;100.00;100279.84;5282599;28;20016;-83
2024/01/04 10:32:50;;;;;;;2.55;1.65;;;;;;;9.96;100.00;100279.41;5277537;28;20411;-83
2024/01/04 10:35:29;;;;;;;3.83;1.30;;;;;;;9.96;100.00;100275.94;5278867;28;20484;-83
2024/01/04 10:38:01;;;;;;;3.70;1.42;;;;;;;9.89;100.00;100277.50;5281288;28;20453;-83
2024/01/04 10:40:33;;;;;;;2.30;1.00;;;;;;;9.88;100.00;100284.50;5279193;28;20071;-83
2024/01/04 10:43:05;;;;;;;1.65;0.80;;;;;;;9.85;100.00;100284.81;5279802;28;20024;-83
2024/01/04 10:45:37;;;;;;;4.55;1.13;;;;;;;9.87;100.00;100295.13;5277720;28;20035;-83
2024/01/04 10:48:14;;;;;;;3.13;0.88;;;;;;;9.91;100.00;100281.59;5283170;28;20036;-83
2024/01/04 10:50:46;;;;;;;1.75;0.98;;;;;;;9.88;100.00;100287.13;5280013;28;20489;-83
2024/01/04 10:53:18;;;;;;;2.75;0.85;;;;;;;9.91;100.00;100289.47;5279012;28;20028;-83
2024/01/04 10:55:53;;;;;;;3.45;0.77;;;;;;;9.97;100.00;100280.25;5281953;28;20295;-83
2024/01/04 10:58:25;;;;;;;2.88;1.23;;;;;;;10.02;100.00;100290.28;5282164;28;20541;-83
2024/01/04 11:00:58;;;;;;;2.50;0.80;;;;;;;10.07;100.00;100294.13;5278975;28;20036;-83
2024/01/04 11:03:31;;;;;;;2.67;0.90;;;;;;;10.13;100.00;100292.75;5273791;28;20044;-83
2024/01/04 11:06:03;;;;;;;3.10;0.95;;;;;;;10.15;100.00;100296.88;5276238;28;20594;-83
2024/01/04 11:08:35;;;;;;;5.47;1.10;;;;;;;10.15;100.00;100296.88;5273629;28;20124;-83
2024/01/04 11:11:10;;;;;;;3.97;1.67;;;;;;;10.19;100.00;100294.78;5278875;28;20040;-83
2024/01/04 11:13:42;;;;;;;6.85;1.65;;;;;;;10.13;100.00;100298.81;5281105;28;20070;-83
2024/01/04 11:16:30;;;;;;;9.10;1.73;;;;;;;10.22;100.00;100290.09;5278654;28;20040;-83
2024/01/04 11:19:35;;;;;;;3.17;1.17;;;;;;;10.44;100.00;100302.06;5281955;28;20033;-83
2024/01/04 11:22:34;;;;;;;4.10;1.58;;;;;;;10.32;100.00;100299.75;5282384;28;20044;-83
2024/01/04 11:25:24;;;;;;;4.15;1.30;;;;;;;10.44;100.00;100296.00;5280636;28;20031;-83
2024/01/04 11:27:57;;;;;;;1.80;0.70;;;;;;;10.27;100.00;100302.00;5268107;28;20428;-83
2024/01/04 11:30:29;;;;;;;2.58;0.70;;;;;;;10.22;100.00;100299.75;5280856;28;20028;-83
2024/01/04 11:33:04;;;;;;;2.43;0.80;;;;;;;10.32;100.00;100297.97;5276328;28;20032;-83
2024/01/04 11:35:36;;;;;;;2.80;0.50;;;;;;;10.18;100.00;100291.34;5280624;28;20039;-83
2024/01/04 11:38:08;;;;;;;2.95;0.60;;;;;;;10.15;100.00;100296.03;5265522;28;20413;-83
2024/01/04 11:40:49;;;;;;;2.28;0.95;;;;;;;10.22;100.00;100287.47;5278406;28;20036;-83
2024/01/04 11:43:22;;;;;;;2.80;0.88;;;;;;;10.07;100.00;100298.53;5263744;28;20047;-83
2024/01/04 11:45:54;;;;;;;2.55;0.63;;;;;;;10.05;100.00;100300.47;5283814;28;20515;-83
2024/01/04 11:48:28;;;;;;;4.45;0.80;;;;;;;10.07;100.00;100299.34;5283494;28;20504;-83
2024/01/04 11:51:00;;;;;;;2.92;0.95;;;;;;;10.09;100.00;100297.44;5284849;28;20031;-82